createdAt,value
2023-03-26T00:01:25.457Z,79.41
2023-03-26T00:03:54.867Z,79.92
2023-03-26T00:06:24.262Z,80.49
2023-03-26T00:08:51.981Z,79.29
2023-03-26T00:11:40.438Z,78.73
2023-03-26T00:14:07.326Z,77.95
2023-03-26T00:16:34.410Z,77.38
2023-03-26T00:19:02.144Z,76.58
2023-03-26T00:21:31.377Z,76.21
2023-03-26T00:24:07.511Z,75.98
2023-03-26T00:26:37.781Z,76.68
2023-03-26T00:29:07.000Z,77.21
2023-03-26T00:31:35.803Z,77.81
2023-03-26T00:34:05.571Z,77.79
2023-03-26T00:36:36.021Z,77.13
2023-03-26T00:39:06.141Z,76.36
2023-03-26T00:41:37.283Z,75.88
2023-03-26T00:44:04.756Z,75.08
2023-03-26T00:46:32.261Z,73.78
2023-03-26T00:49:01.847Z,73.69
2023-03-26T00:51:28.786Z,73.71
2023-03-26T00:53:56.704Z,73.37
2023-03-26T00:56:24.243Z,73.11
2023-03-26T00:58:51.256Z,73.82
2023-03-26T01:01:28.676Z,74.03
2023-03-26T01:04:28.574Z,74.92
2023-03-26T01:06:55.980Z,76.82
2023-03-26T01:09:33.108Z,76.12
2023-03-26T01:12:02.850Z,75.86
2023-03-26T01:14:29.816Z,75.38
2023-03-26T01:16:59.483Z,74.94
2023-03-26T01:19:38.293Z,74.82
2023-03-26T01:22:11.456Z,75.83
2023-03-26T01:24:40.187Z,75.46
2023-03-26T01:27:25.913Z,75.54
2023-03-26T01:30:20.921Z,75.50
2023-03-26T01:33:00.883Z,75.66
2023-03-26T01:35:41.896Z,75.86
2023-03-26T01:38:27.923Z,75.78
2023-03-26T01:41:19.444Z,75.94
2023-03-26T01:43:49.562Z,76.07
2023-03-26T01:46:19.485Z,76.19
2023-03-26T01:48:47.770Z,77.09
2023-03-26T01:51:26.406Z,77.60
2023-03-26T01:53:55.513Z,77.37
2023-03-26T01:56:31.515Z,77.64
2023-03-26T01:59:39.903Z,77.96
2023-03-26T02:02:17.549Z,80.32
2023-03-26T02:05:08.672Z,80.79
2023-03-26T02:07:51.381Z,80.67
2023-03-26T02:10:29.638Z,80.31
2023-03-26T02:12:57.766Z,79.27
2023-03-26T02:15:25.749Z,78.37
2023-03-26T02:17:54.197Z,78.96
2023-03-26T02:20:21.645Z,79.53
2023-03-26T02:22:49.348Z,79.40
2023-03-26T02:25:21.280Z,80.30
2023-03-26T02:27:50.766Z,80.61
2023-03-26T02:30:25.757Z,80.16
2023-03-26T02:32:54.186Z,80.38
2023-03-26T02:35:22.624Z,80.38
2023-03-26T02:37:51.118Z,80.16
2023-03-26T02:40:21.336Z,80.11
2023-03-26T02:42:49.666Z,80.48
2023-03-26T02:45:16.755Z,79.57
2023-03-26T02:47:46.241Z,79.35
2023-03-26T02:50:13.098Z,80.55
2023-03-26T02:52:40.057Z,80.45
2023-03-26T02:55:07.528Z,80.00
2023-03-26T02:57:35.190Z,79.87
2023-03-26T03:00:05.975Z,79.98
2023-03-26T03:02:32.861Z,79.45
2023-03-26T03:05:01.599Z,79.04
2023-03-26T03:07:29.231Z,79.31
2023-03-26T03:10:02.744Z,79.40
2023-03-26T03:12:29.527Z,79.11
2023-03-26T03:14:56.239Z,78.60
2023-03-26T03:17:24.545Z,78.28
2023-03-26T03:22:41.016Z,78.69
2023-03-26T03:31:09.454Z,78.36
2023-03-26T03:34:15.668Z,79.17
2023-03-26T03:36:42.466Z,79.04
2023-03-26T03:39:09.344Z,79.08
2023-03-26T03:41:37.044Z,79.52
2023-03-26T03:44:06.814Z,79.76
2023-03-26T03:46:33.811Z,80.09
2023-03-26T03:49:00.652Z,81.38
2023-03-26T03:51:27.429Z,81.62
2023-03-26T03:53:55.900Z,82.13
2023-03-26T03:56:24.387Z,82.14
2023-03-26T03:58:52.052Z,82.59
2023-03-26T04:01:23.013Z,83.03
2023-03-26T04:03:50.787Z,83.50
2023-03-26T04:06:21.599Z,83.31
2023-03-26T04:08:49.311Z,83.57
2023-03-26T04:11:16.162Z,83.37
2023-03-26T04:13:44.600Z,83.11
2023-03-26T04:16:11.571Z,83.13
2023-03-26T04:18:38.467Z,83.19
2023-03-26T04:21:07.651Z,82.98
2023-03-26T04:23:35.138Z,82.98
2023-03-26T04:26:05.861Z,82.68
2023-03-26T04:28:47.845Z,82.41
2023-03-26T04:31:18.928Z,82.36
2023-03-26T04:33:50.461Z,84.36
2023-03-26T04:36:18.371Z,85.29
2023-03-26T04:38:52.078Z,85.57
2023-03-26T04:41:19.004Z,85.58
2023-03-26T04:43:50.868Z,85.02
2023-03-26T04:46:18.633Z,84.44
2023-03-26T04:48:45.450Z,84.20
2023-03-26T04:51:18.404Z,84.45
2023-03-26T04:53:53.336Z,84.26
2023-03-26T04:56:30.145Z,84.46
2023-03-26T04:59:01.403Z,84.23
2023-03-26T05:01:28.797Z,84.45
2023-03-26T05:03:55.870Z,84.77
2023-03-26T05:06:25.185Z,84.71
2023-03-26T05:08:52.852Z,84.30
2023-03-26T05:11:21.081Z,84.55
2023-03-26T05:13:47.979Z,85.87
2023-03-26T05:16:14.809Z,85.71
2023-03-26T05:18:41.961Z,85.50
2023-03-26T05:21:09.084Z,85.30
2023-03-26T05:23:36.175Z,84.74
2023-03-26T05:26:03.047Z,83.95
2023-03-26T05:28:29.956Z,83.85
2023-03-26T05:30:57.108Z,83.07
2023-03-26T05:33:24.821Z,83.36
2023-03-26T05:36:03.778Z,82.90
2023-03-26T05:38:31.621Z,82.35
2023-03-26T05:41:03.995Z,81.85
2023-03-26T05:43:31.393Z,81.84
2023-03-26T05:45:58.344Z,81.90
2023-03-26T05:48:26.922Z,82.57
2023-03-26T05:50:56.304Z,82.81
2023-03-26T05:53:24.973Z,83.02
2023-03-26T05:55:58.311Z,82.67
2023-03-26T05:58:26.513Z,83.70
2023-03-26T06:01:05.764Z,83.30
2023-03-26T06:03:33.766Z,83.56
2023-03-26T06:06:00.760Z,83.28
2023-03-26T06:08:27.650Z,82.25
2023-03-26T06:11:02.137Z,82.37
2023-03-26T06:13:29.145Z,82.07
2023-03-26T06:15:57.906Z,82.01
2023-03-26T06:18:28.508Z,82.67
2023-03-26T06:20:55.479Z,82.86
2023-03-26T06:23:23.368Z,83.01
2023-03-26T06:25:51.068Z,82.76
2023-03-26T06:28:18.269Z,82.69
2023-03-26T06:30:49.002Z,82.62
2023-03-26T06:33:17.119Z,82.48
2023-03-26T06:35:45.607Z,82.55
2023-03-26T06:38:13.192Z,82.21
2023-03-26T06:40:39.980Z,82.03
2023-03-26T06:43:10.661Z,81.85
2023-03-26T06:45:38.325Z,81.01
2023-03-26T06:48:06.461Z,80.80
2023-03-26T06:50:33.315Z,80.37
2023-03-26T06:53:00.456Z,79.92
2023-03-26T06:55:28.058Z,79.88
2023-03-26T06:57:57.017Z,79.69
2023-03-26T07:00:24.264Z,79.59
2023-03-26T07:02:51.308Z,80.03
2023-03-26T07:05:20.472Z,79.69
2023-03-26T07:07:49.683Z,79.73
2023-03-26T07:10:16.703Z,79.37
2023-03-26T07:12:43.674Z,79.08
2023-03-26T07:15:11.074Z,78.24
2023-03-26T07:17:37.892Z,77.70
2023-03-26T07:20:08.843Z,77.29
2023-03-26T07:22:37.443Z,77.00
2023-03-26T07:25:05.529Z,76.77
2023-03-26T07:27:54.224Z,76.28
2023-03-26T07:30:47.544Z,76.01
2023-03-26T07:33:14.237Z,75.79
2023-03-26T07:35:53.479Z,75.20
2023-03-26T07:38:31.721Z,75.30
2023-03-26T07:41:11.873Z,74.99
2023-03-26T07:43:58.274Z,73.64
2023-03-26T07:46:32.124Z,72.97
2023-03-26T07:49:00.483Z,71.77
2023-03-26T07:51:28.958Z,70.85
2023-03-26T07:53:56.347Z,70.58
2023-03-26T07:56:42.987Z,70.09
2023-03-26T07:59:38.712Z,69.60
2023-03-26T08:02:27.312Z,69.61
2023-03-26T08:05:19.955Z,68.76
2023-03-26T08:08:02.954Z,68.95
2023-03-26T08:10:51.473Z,69.83
2023-03-26T08:13:37.740Z,68.79
2023-03-26T08:16:19.578Z,67.88
2023-03-26T08:19:00.803Z,67.15
2023-03-26T08:22:12.606Z,67.45
2023-03-26T08:24:54.159Z,64.68
2023-03-26T08:27:40.114Z,64.52
2023-03-26T08:30:17.515Z,64.13
2023-03-26T08:33:00.472Z,64.70
2023-03-26T08:35:28.621Z,62.43
2023-03-26T08:37:56.354Z,60.97
2023-03-26T08:40:38.937Z,60.91
2023-03-26T08:43:11.456Z,60.73
2023-03-26T08:46:00.521Z,59.46
2023-03-26T08:48:53.912Z,57.19
2023-03-26T08:52:06.771Z,58.46
2023-03-26T08:54:51.582Z,57.84
2023-03-26T08:57:57.459Z,53.06
2023-03-26T09:00:42.890Z,53.11
2023-03-26T09:03:51.340Z,52.47
2023-03-26T09:06:38.274Z,52.99
2023-03-26T09:09:23.962Z,50.70
2023-03-26T09:12:17.641Z,48.47
2023-03-26T09:15:21.940Z,44.51
2023-03-26T09:18:12.311Z,44.46
2023-03-26T09:20:55.272Z,44.85
2023-03-26T09:23:44.324Z,45.08
2023-03-26T09:26:28.007Z,44.79
2023-03-26T09:29:06.828Z,44.21
2023-03-26T09:32:03.069Z,43.06
2023-03-26T09:34:45.167Z,43.99
2023-03-26T09:37:36.807Z,43.22
2023-03-26T09:41:01.678Z,41.60
2023-03-26T09:44:08.120Z,41.58
2023-03-26T09:47:27.691Z,40.79
2023-03-26T09:50:17.176Z,40.66
2023-03-26T09:52:57.412Z,40.72
2023-03-26T09:58:24.112Z,40.06
2023-03-26T10:01:29.442Z,39.48
2023-03-26T10:04:04.405Z,39.06
2023-03-26T10:06:58.831Z,38.76
2023-03-26T10:09:26.434Z,38.70
2023-03-26T10:12:22.494Z,38.39
2023-03-26T10:15:17.784Z,39.79
2023-03-26T10:18:27.285Z,40.26
2023-03-26T10:21:15.906Z,38.27
2023-03-26T10:23:46.364Z,38.46
2023-03-26T10:27:08.307Z,37.75
2023-03-26T10:29:44.249Z,37.66
2023-03-26T10:32:32.971Z,37.10
2023-03-26T10:35:23.293Z,38.25
2023-03-26T10:38:16.718Z,36.43
2023-03-26T10:41:11.863Z,36.22
2023-03-26T10:44:13.362Z,36.45
2023-03-26T10:47:08.552Z,36.78
2023-03-26T10:49:57.907Z,35.84
2023-03-26T10:52:31.607Z,35.79
2023-03-26T10:55:27.632Z,36.96
2023-03-26T10:58:19.298Z,35.72
2023-03-26T11:00:57.413Z,35.14
2023-03-26T11:03:46.338Z,33.77
2023-03-26T11:06:16.705Z,34.95
2023-03-26T11:09:04.280Z,35.41
2023-03-26T11:11:33.808Z,35.13
2023-03-26T11:14:21.327Z,34.21
2023-03-26T11:17:14.864Z,34.91
2023-03-26T11:20:30.141Z,33.85
2023-03-26T11:23:21.059Z,33.81
2023-03-26T11:26:08.711Z,32.55
2023-03-26T11:32:11.983Z,33.21
2023-03-26T11:34:36.776Z,31.63
2023-03-26T11:34:42.950Z,33.65
2023-03-26T11:37:27.824Z,32.73
2023-03-26T11:39:59.666Z,31.21
2023-03-26T11:42:34.040Z,29.30
2023-03-26T11:45:14.798Z,29.53
2023-03-26T11:47:51.972Z,30.53
2023-03-26T11:50:27.992Z,29.86
2023-03-26T11:53:03.255Z,30.14
2023-03-26T11:55:32.273Z,29.41
2023-03-26T11:58:01.364Z,29.22
2023-03-26T12:00:29.856Z,30.10
2023-03-26T12:02:59.132Z,29.99
2023-03-26T12:05:36.765Z,29.81
2023-03-26T12:08:19.727Z,29.99
2023-03-26T12:10:58.467Z,29.26
2023-03-26T12:13:44.859Z,28.44
2023-03-26T12:16:22.752Z,29.23
2023-03-26T12:19:19.464Z,28.64
2023-03-26T12:21:49.241Z,28.58
2023-03-26T12:24:32.324Z,27.70
2023-03-26T12:27:02.805Z,28.94
2023-03-26T12:29:34.710Z,29.35
2023-03-26T12:32:13.368Z,30.60
2023-03-26T12:34:42.156Z,30.63
2023-03-26T12:37:10.422Z,29.02
2023-03-26T12:47:58.312Z,27.81
2023-03-26T12:55:42.440Z,28.04
2023-03-26T13:05:05.014Z,29.16
2023-03-26T13:07:39.963Z,29.08
2023-03-26T13:13:10.512Z,29.53
2023-03-26T13:21:06.613Z,29.58
2023-03-26T13:30:12.973Z,28.91
2023-03-26T13:38:58.917Z,28.89
2023-03-26T13:42:10.153Z,29.40
2023-03-26T13:45:05.268Z,29.75
2023-03-26T13:47:42.721Z,29.94
2023-03-26T13:50:36.171Z,30.58
2023-03-26T13:53:19.931Z,30.81
2023-03-26T13:55:54.644Z,30.07
2023-03-26T13:58:40.581Z,30.13
2023-03-26T14:01:17.857Z,29.56
2023-03-26T14:04:18.011Z,29.32
2023-03-26T14:07:01.546Z,29.78
2023-03-26T14:10:02.192Z,30.63
2023-03-26T14:12:49.052Z,31.26
2023-03-26T14:15:33.848Z,30.32
2023-03-26T14:18:26.217Z,30.24
2023-03-26T14:21:09.893Z,30.82
2023-03-26T14:23:53.473Z,29.77
2023-03-26T14:26:38.059Z,29.61
2023-03-26T14:29:23.996Z,29.08
2023-03-26T14:32:24.299Z,29.69
2023-03-26T14:35:27.758Z,30.39
2023-03-26T14:37:58.700Z,29.46
2023-03-26T14:40:30.392Z,29.34
2023-03-26T14:43:11.596Z,29.63
2023-03-26T14:46:10.382Z,30.34
2023-03-26T14:48:45.930Z,30.05
2023-03-26T14:51:24.772Z,29.76
2023-03-26T14:53:57.838Z,30.02
2023-03-26T14:56:34.351Z,30.21
2023-03-26T14:59:40.252Z,30.43
2023-03-26T15:02:46.299Z,30.79
2023-03-26T15:05:28.692Z,30.27
2023-03-26T15:08:20.678Z,30.08
2023-03-26T15:11:35.221Z,30.00
2023-03-26T15:14:21.000Z,30.78
2023-03-26T15:17:04.548Z,31.02
2023-03-26T15:19:40.823Z,30.82
2023-03-26T15:22:32.875Z,30.30
2023-03-26T15:25:36.530Z,30.94
2023-03-26T15:28:21.078Z,30.62
2023-03-26T15:31:09.885Z,30.43
2023-03-26T15:34:06.232Z,30.42
2023-03-26T15:36:38.598Z,30.74
2023-03-26T15:39:59.393Z,31.26
2023-03-26T15:43:02.405Z,32.33
2023-03-26T15:45:35.183Z,32.72
2023-03-26T15:48:13.679Z,32.19
2023-03-26T15:51:03.637Z,31.70
2023-03-26T15:54:09.328Z,31.41
2023-03-26T15:57:01.576Z,32.44
2023-03-26T15:59:37.315Z,31.86
2023-03-26T16:02:07.539Z,31.42
2023-03-26T16:04:50.693Z,31.32
2023-03-26T16:07:21.900Z,31.93
2023-03-26T16:10:01.168Z,31.84
2023-03-26T16:12:33.728Z,32.38
2023-03-26T16:15:07.381Z,33.09
2023-03-26T16:18:12.371Z,33.19
2023-03-26T16:21:38.575Z,33.61
2023-03-26T16:24:08.663Z,33.84
2023-03-26T16:26:45.568Z,34.04
2023-03-26T16:29:22.367Z,34.19
2023-03-26T16:32:10.155Z,34.29
2023-03-26T16:34:58.199Z,34.19
2023-03-26T16:37:39.832Z,34.48
2023-03-26T16:40:28.363Z,34.35
2023-03-26T16:43:10.413Z,34.65
2023-03-26T16:45:42.411Z,34.85
2023-03-26T16:48:41.703Z,36.41
2023-03-26T16:51:56.253Z,37.45
2023-03-26T16:54:39.741Z,37.54
2023-03-26T16:57:43.349Z,37.99
2023-03-26T17:00:16.258Z,38.26
2023-03-26T17:03:00.081Z,39.05
2023-03-26T17:09:44.227Z,39.10
2023-03-26T17:12:34.742Z,39.33
2023-03-26T17:15:19.556Z,38.88
2023-03-26T17:17:50.438Z,39.40
2023-03-26T17:20:33.574Z,38.59
2023-03-26T17:23:27.345Z,38.66
2023-03-26T17:25:57.821Z,38.24
2023-03-26T17:28:44.119Z,38.36
2023-03-26T17:31:13.100Z,38.44
2023-03-26T17:33:42.098Z,37.98
2023-03-26T17:36:21.356Z,38.36
2023-03-26T17:38:49.154Z,38.77
2023-03-26T17:41:55.415Z,38.64
2023-03-26T17:44:41.051Z,39.52
2023-03-26T17:47:27.550Z,39.26
2023-03-26T17:50:00.999Z,39.57
2023-03-26T17:52:35.763Z,39.66
2023-03-26T17:55:03.514Z,39.53
2023-03-26T17:57:51.446Z,39.46
2023-03-26T18:00:22.976Z,39.28
2023-03-26T18:02:59.433Z,39.25
2023-03-26T18:05:29.657Z,39.53
2023-03-26T18:08:34.726Z,39.54
2023-03-26T18:11:21.469Z,39.15
2023-03-26T18:14:11.194Z,39.53
2023-03-26T18:16:53.296Z,38.91
2023-03-26T18:19:23.641Z,38.99
2023-03-26T18:22:06.157Z,38.65
2023-03-26T18:24:37.828Z,38.86
2023-03-26T18:27:12.629Z,39.38
2023-03-26T18:29:44.062Z,39.45
2023-03-26T18:32:11.676Z,39.27
2023-03-26T18:34:46.293Z,39.88
2023-03-26T18:37:24.449Z,39.56
2023-03-26T18:40:10.359Z,38.80
2023-03-26T18:42:40.414Z,39.37
2023-03-26T18:45:32.800Z,39.73
2023-03-26T18:48:04.904Z,39.97
2023-03-26T18:50:40.128Z,40.07
2023-03-26T18:53:21.045Z,40.51
2023-03-26T18:55:50.752Z,40.46
2023-03-26T18:58:31.731Z,40.25
2023-03-26T19:01:03.970Z,40.16
2023-03-26T19:03:40.577Z,39.67
2023-03-26T19:06:12.585Z,39.67
2023-03-26T19:08:43.030Z,40.08
2023-03-26T19:11:11.548Z,40.72
2023-03-26T19:13:43.536Z,40.93
2023-03-26T19:16:29.077Z,40.50
2023-03-26T19:18:59.278Z,40.22
2023-03-26T19:21:26.451Z,39.98
2023-03-26T19:23:55.135Z,40.12
2023-03-26T19:26:22.961Z,40.36
2023-03-26T19:28:54.506Z,40.03
2023-03-26T19:31:39.146Z,40.50
2023-03-26T19:34:12.138Z,40.62
2023-03-26T19:37:01.217Z,40.57
2023-03-26T19:39:42.827Z,41.33
2023-03-26T19:42:17.622Z,41.82
2023-03-26T19:44:45.205Z,41.83
2023-03-26T19:47:31.920Z,41.45
2023-03-26T19:50:25.495Z,41.84
2023-03-26T19:53:28.833Z,42.53
2023-03-26T19:58:37.021Z,43.22
2023-03-26T20:01:05.782Z,43.13
2023-03-26T20:03:43.017Z,43.31
2023-03-26T20:06:15.396Z,42.89
2023-03-26T20:08:42.961Z,42.86
2023-03-26T20:11:38.109Z,42.79
2023-03-26T20:14:26.701Z,43.39
2023-03-26T20:16:53.881Z,42.73
2023-03-26T20:19:25.620Z,43.26
2023-03-26T20:21:52.943Z,42.98
2023-03-26T20:24:21.772Z,43.19
2023-03-26T20:26:49.790Z,43.28
2023-03-26T20:29:17.084Z,44.30
2023-03-26T20:31:48.676Z,44.70
2023-03-26T20:34:20.242Z,44.38
2023-03-26T20:36:54.436Z,43.98
2023-03-26T20:39:22.729Z,44.40
2023-03-26T20:41:51.134Z,46.06
2023-03-26T20:44:20.000Z,46.27
2023-03-26T20:46:48.896Z,47.24
2023-03-26T20:49:18.071Z,48.60
2023-03-26T20:51:45.760Z,49.83
2023-03-26T20:54:24.346Z,49.89
2023-03-26T20:56:52.573Z,50.07
2023-03-26T20:59:26.875Z,49.83
2023-03-26T21:01:55.170Z,50.20
2023-03-26T21:04:22.982Z,49.65
2023-03-26T21:06:50.132Z,49.04
2023-03-26T21:09:24.170Z,49.28
2023-03-26T21:12:05.173Z,50.31
2023-03-26T21:14:41.426Z,49.14
2023-03-26T21:17:18.683Z,50.47
2023-03-26T21:19:47.254Z,50.30
2023-03-26T21:22:35.969Z,49.55
2023-03-26T21:25:21.526Z,49.34
2023-03-26T21:28:03.696Z,49.12
2023-03-26T21:30:31.008Z,50.08
2023-03-26T21:32:59.840Z,49.56
2023-03-26T21:35:27.985Z,50.37
2023-03-26T21:37:57.790Z,50.67
2023-03-26T21:40:26.236Z,50.79
2023-03-26T21:42:55.067Z,50.65
2023-03-26T21:45:23.221Z,51.45
2023-03-26T21:47:50.461Z,51.01
2023-03-26T21:50:21.813Z,51.38
2023-03-26T21:52:51.499Z,51.15
2023-03-26T21:55:23.531Z,50.80
2023-03-26T21:58:07.882Z,50.30
2023-03-26T22:00:55.111Z,50.65
2023-03-26T22:03:33.224Z,50.89
2023-03-26T22:06:08.707Z,50.32
2023-03-26T22:08:39.184Z,50.08
2023-03-26T22:11:08.561Z,50.01
2023-03-26T22:13:38.369Z,48.79
2023-03-26T22:16:08.067Z,48.84
2023-03-26T22:18:35.974Z,49.41
2023-03-26T22:21:03.306Z,51.90
2023-03-26T22:23:38.444Z,52.34
2023-03-26T22:26:06.175Z,51.71
2023-03-26T22:28:34.221Z,50.67
2023-03-26T22:31:09.191Z,50.75
2023-03-26T22:33:38.068Z,49.58
2023-03-26T22:36:22.092Z,48.31
2023-03-26T22:38:54.918Z,48.47
2023-03-26T22:41:23.316Z,47.75
2023-03-26T22:43:53.680Z,47.35
2023-03-26T22:46:21.910Z,47.54
2023-03-26T22:48:49.696Z,47.20
2023-03-26T22:51:18.231Z,46.46
2023-03-26T22:53:46.058Z,45.70
2023-03-26T22:56:14.405Z,46.13
2023-03-26T22:58:42.416Z,46.06
2023-03-26T23:01:19.808Z,45.89
2023-03-26T23:03:47.774Z,46.28
2023-03-26T23:06:17.234Z,46.15
2023-03-26T23:08:45.056Z,46.89
2023-03-26T23:11:15.133Z,46.54
2023-03-26T23:13:43.951Z,45.74
2023-03-26T23:16:13.190Z,46.07
2023-03-26T23:18:41.862Z,46.03
2023-03-26T23:21:19.831Z,47.63
2023-03-26T23:23:49.490Z,47.38
2023-03-26T23:26:17.239Z,47.01
2023-03-26T23:28:44.446Z,46.73
2023-03-26T23:31:13.074Z,46.56
2023-03-26T23:34:04.734Z,46.00
2023-03-26T23:36:32.406Z,47.88
2023-03-26T23:39:01.727Z,47.54
2023-03-26T23:41:29.569Z,47.11
2023-03-26T23:43:57.243Z,46.76
2023-03-26T23:46:30.629Z,46.88
2023-03-26T23:49:05.305Z,46.28
2023-03-26T23:51:32.878Z,47.20
2023-03-26T23:54:01.756Z,48.61
2023-03-26T23:56:30.194Z,50.74
2023-03-26T23:58:59.267Z,50.97
